עמוד ראשי
METAR-TAF:

METAR-TAF

שדות תעופה :

Arar, ערב הסעודית

קו רוחב: 30-54N, קו אורך: 041-08E, גובה: 555מטר

תצפית מזג אוויר נוכחית

הדו"ח נערך לפני 16דקות, בשעה 21:00 UTC
רוח 7קשר מכיוון צפון/צפון-מערב
טמפרטורת 32 צלסיוס
לחות 11%
לחץ 1008 hPa
ראות 10 קילומטר או יותר
ללא עננים שבסיסם נמוך מ 5000 רגל או קומולונימבוס

METAR: OERR 132100Z 33007KT CAVOK 32/M02 Q1008 NOSIG

זמן: 00:16 (21:16 UTC)

תחזית

הדו"ח נערך לפני 10 שעות ו 16דקות, בשעה 11:00 UTC
תחזית בתוקף מ 13 ב 12 UTC עד 14 ב 18 UTC
רוח 16קשר מכיוון מערב/צפון-מערב
ראות: 7000מטר
יעשה מ
14 ב 06 UTC עד 14 ב 08 UTC
רוח 20קשר מכיוון צפון
הסתברות 40% :
זמנית מ -
14 ב 04 UTC עד 14 ב 16 UTC
ראות: 3000מטר
אבק נושב,

TAF: OERR 131100Z 1312/1418 30016KT 7000 NSC BECMG 1406/1408 35020KT PROB40 TEMPO 1404/1416 3000 BLDU

תצפיות ותחזיות מזג אוויר לגבי יותר מ- 4,000 שדות תעופה ברחבי העולם. דוחות METAR ו- TAF.

התחנות הזמינות מסומנות בנקודות צהובות ואדומות על גבי המפה.

העבר את העכבר לנקודה הצבעונית על מנת לראות את שם התחנה.

לאחר מכן, לחץ כדי לראות את תוכן ואת תחזיות מזג האוויר.

כדי לשנות את המפה: לחץ על הכפתורים הירוקים עם הפלוס השחור כדי להתקרב; על הכפתור הירוק עם המקף כדי להתרחק; או בחיצים הירוקים למפות סמוכות.


METAR-TAF: